Time;durP1;ratioP1;P1;durP2;ratioP2;P2;SDS_P1;SDS_P2;PMS_P1;PMS_P2;Temp;Humidity;BMP_temperature;BMP_pressure;BME280_temperature;BME280_humidity;BME280_pressure;Samples;Min_cycle;Max_cycle;Signal;HPM_P1;HPM_P2
2021/07/31 00:01:09;;;;;;;;;;;15.80;76.30;;;;;;5092514;28;19908;-65
2021/07/31 00:03:36;;;;;;;;;;;15.80;76.40;;;;;;5092138;28;19927;-64
2021/07/31 00:06:03;;;;;;;;;;;15.80;75.30;;;;;;5092377;28;19951;-63
2021/07/31 00:08:29;;;;;;;;;;;15.80;76.10;;;;;;5092406;28;20381;-63
2021/07/31 00:10:56;;;;;;;;;;;15.70;76.20;;;;;;5092234;28;19994;-64
2021/07/31 00:13:23;;;;;;;;;;;15.70;76.20;;;;;;5092407;28;19999;-63
2021/07/31 00:15:50;;;;;;;;;;;15.60;77.00;;;;;;5090661;28;20254;-65
2021/07/31 00:18:16;;;;;;;;;;;15.60;76.20;;;;;;5092277;28;20235;-63
2021/07/31 00:20:43;;;;;;;;;;;15.60;77.70;;;;;;5092423;28;20381;-64
2021/07/31 00:23:10;;;;;;;;;;;15.60;76.90;;;;;;5092312;28;19908;-64
2021/07/31 00:25:37;;;;;;;;;;;15.70;76.90;;;;;;5091859;28;20018;-63
2021/07/31 00:28:04;;;;;;;;;;;15.80;76.90;;;;;;5092094;28;19908;-63
2021/07/31 00:30:30;;;;;;;;;;;16.00;77.50;;;;;;5092224;28;19908;-65
2021/07/31 00:32:57;;;;;;;;;;;16.10;76.80;;;;;;5092131;28;19908;-64
2021/07/31 00:35:24;;;;;;;;;;;16.10;77.60;;;;;;5091952;28;19912;-64
2021/07/31 00:37:50;;;;;;;;;;;16.10;78.30;;;;;;5092101;28;20018;-65
2021/07/31 00:40:17;;;;;;;;;;;16.20;77.20;;;;;;5092180;28;20412;-65
2021/07/31 00:42:44;;;;;;;;;;;16.30;76.80;;;;;;5092092;28;20355;-65
2021/07/31 00:45:11;;;;;;;;;;;16.20;78.20;;;;;;5091774;28;19927;-63
2021/07/31 00:47:44;;;;;;;;;;;16.30;77.00;;;;;;5091855;28;19914;-64
2021/07/31 00:50:11;;;;;;;;;;;16.40;77.70;;;;;;5091930;28;20340;-66
2021/07/31 00:52:39;;;;;;;;;;;16.50;77.20;;;;;;5091986;28;20455;-64
2021/07/31 00:55:06;;;;;;;;;;;16.50;77.20;;;;;;5092031;28;19908;-64
2021/07/31 00:57:33;;;;;;;;;;;16.50;76.70;;;;;;5091791;28;20003;-64
2021/07/31 01:00:00;;;;;;;;;;;16.50;77.00;;;;;;5091958;28;19947;-65
2021/07/31 01:02:27;;;;;;;;;;;16.50;77.20;;;;;;5091977;28;20278;-64
2021/07/31 01:04:53;;;;;;;;;;;16.50;76.30;;;;;;5091880;28;19959;-65
2021/07/31 01:07:20;;;;;;;;;;;16.50;77.40;;;;;;5091831;28;19954;-65
2021/07/31 01:09:47;;;;;;;;;;;16.50;78.30;;;;;;5093168;28;20011;-65
2021/07/31 01:12:13;;;;;;;;;;;16.60;76.80;;;;;;5095463;28;19908;-65
2021/07/31 01:14:41;;;;;;;;;;;16.60;76.80;;;;;;5095439;28;20235;-65
2021/07/31 01:17:11;;;;;;;;;;;16.50;77.30;;;;;;5095311;28;19912;-65
2021/07/31 01:19:41;;;;;;;;;;;16.50;77.70;;;;;;5093794;28;19912;-64
2021/07/31 01:22:08;;;;;;;;;;;16.50;78.70;;;;;;5095314;28;19907;-64
2021/07/31 01:24:34;;;;;;;;;;;16.50;79.00;;;;;;5095293;28;19976;-66
2021/07/31 01:27:01;;;;;;;;;;;16.40;77.40;;;;;;5095194;28;19954;-63
2021/07/31 01:29:28;;;;;;;;;;;16.40;77.90;;;;;;5095310;28;19909;-64
2021/07/31 01:31:57;;;;;;;;;;;16.40;77.90;;;;;;5095547;28;19908;-64
2021/07/31 01:34:24;;;;;;;;;;;16.30;78.40;;;;;;5094972;28;19912;-65
2021/07/31 01:36:51;;;;;;;;;;;16.20;78.20;;;;;;5094906;28;19914;-64
2021/07/31 01:39:18;;;;;;;;;;;16.20;78.70;;;;;;5095008;28;19908;-64
2021/07/31 01:41:45;;;;;;;;;;;16.10;79.80;;;;;;5094711;28;19912;-64
2021/07/31 01:44:11;;;;;;;;;;;16.20;78.80;;;;;;5094833;28;19924;-65
2021/07/31 01:46:38;;;;;;;;;;;16.20;78.50;;;;;;5090230;28;20373;-64
2021/07/31 01:49:05;;;;;;;;;;;16.20;78.70;;;;;;5074476;28;19913;-64
2021/07/31 01:51:31;;;;;;;;;;;16.30;78.60;;;;;;5073961;28;19908;-65
2021/07/31 01:53:58;;;;;;;;;;;16.30;79.40;;;;;;5074255;28;20397;-64
2021/07/31 01:56:25;;;;;;;;;;;16.40;78.80;;;;;;5074333;28;19917;-64
2021/07/31 01:58:57;;;;;;;;;;;16.30;79.60;;;;;;5074220;28;19970;-64
2021/07/31 02:01:33;;;;;;;;;;;16.30;79.20;;;;;;5074184;28;19908;-63
2021/07/31 02:04:00;;;;;;;;;;;16.30;79.30;;;;;;5078164;28;19915;-63
2021/07/31 02:06:29;;;;;;;;;;;16.40;79.50;;;;;;5073663;28;20003;-64
2021/07/31 02:08:57;;;;;;;;;;;16.40;79.60;;;;;;5106110;28;19917;-64
2021/07/31 02:11:24;;;;;;;;;;;16.50;78.60;;;;;;5074040;28;19970;-63
2021/07/31 02:13:53;;;;;;;;;;;16.50;79.20;;;;;;5073841;28;19917;-64
2021/07/31 02:16:31;;;;;;;;;;;16.50;79.50;;;;;;5073983;28;19909;-63
2021/07/31 02:18:59;;;;;;;;;;;16.50;79.40;;;;;;5071364;28;19946;-65
2021/07/31 02:21:25;;;;;;;;;;;16.80;78.60;;;;;;5072932;28;19908;-66
2021/07/31 02:23:53;;;;;;;;;;;16.90;77.90;;;;;;5073656;28;19940;-65
2021/07/31 02:26:20;;;;;;;;;;;17.00;77.40;;;;;;5074068;28;20290;-66
2021/07/31 02:28:47;;;;;;;;;;;17.00;78.40;;;;;;5073715;28;19909;-65
2021/07/31 02:31:14;;;;;;;;;;;17.00;78.20;;;;;;5073772;28;19961;-66
2021/07/31 02:33:40;;;;;;;;;;;17.10;77.90;;;;;;5073507;28;20058;-64
2021/07/31 02:36:07;;;;;;;;;;;17.30;78.60;;;;;;5073202;28;19923;-66
2021/07/31 02:38:34;;;;;;;;;;;17.40;77.90;;;;;;5073600;28;19909;-65
2021/07/31 02:41:01;;;;;;;;;;;17.30;78.40;;;;;;5073382;28;19999;-65
2021/07/31 02:43:28;;;;;;;;;;;17.30;79.20;;;;;;5073312;28;19908;-66
2021/07/31 02:45:54;;;;;;;;;;;17.50;78.50;;;;;;5073323;28;20442;-66
2021/07/31 02:48:21;;;;;;;;;;;17.50;78.40;;;;;;5105773;28;19909;-64
2021/07/31 02:50:48;;;;;;;;;;;17.50;78.00;;;;;;5072738;28;20343;-66
2021/07/31 02:53:15;;;;;;;;;;;17.50;78.50;;;;;;5073661;28;19913;-64
2021/07/31 02:55:45;;;;;;;;;;;17.50;78.70;;;;;;5073076;28;19908;-66
2021/07/31 02:58:12;;;;;;;;;;;17.70;77.60;;;;;;5073386;28;19909;-65
2021/07/31 03:00:38;;;;;;;;;;;18.10;76.40;;;;;;5073134;28;19931;-65
2021/07/31 03:03:05;;;;;;;;;;;18.20;75.50;;;;;;5072980;28;20335;-65
2021/07/31 03:05:32;;;;;;;;;;;18.20;75.40;;;;;;5072306;28;19920;-65
2021/07/31 03:07:58;;;;;;;;;;;18.10;76.20;;;;;;5073037;28;19909;-64
2021/07/31 03:10:25;;;;;;;;;;;18.10;75.70;;;;;;5073102;28;19959;-63
2021/07/31 03:12:51;;;;;;;;;;;18.10;75.50;;;;;;5073030;28;19936;-66
2021/07/31 03:15:18;;;;;;;;;;;18.20;75.20;;;;;;5073169;28;20425;-63
2021/07/31 03:17:45;;;;;;;;;;;18.20;75.00;;;;;;5072455;28;19912;-63
2021/07/31 03:20:12;;;;;;;;;;;18.30;75.80;;;;;;5072531;28;20403;-63
2021/07/31 03:22:38;;;;;;;;;;;18.40;75.30;;;;;;5072943;28;20002;-64
2021/07/31 03:25:05;;;;;;;;;;;18.50;76.00;;;;;;5072610;28;19928;-63
2021/07/31 03:27:32;;;;;;;;;;;18.60;76.80;;;;;;5072734;28;19909;-64
2021/07/31 03:29:59;;;;;;;;;;;18.70;75.80;;;;;;5072875;28;19916;-64
2021/07/31 03:32:25;;;;;;;;;;;18.70;75.10;;;;;;5071859;28;19961;-65
2021/07/31 03:34:52;;;;;;;;;;;18.70;75.90;;;;;;5072504;28;19908;-64
2021/07/31 03:37:19;;;;;;;;;;;19.00;74.50;;;;;;5072742;28;19909;-64
2021/07/31 03:39:45;;;;;;;;;;;19.00;73.90;;;;;;5072285;28;19908;-66
2021/07/31 03:42:12;;;;;;;;;;;19.00;73.90;;;;;;5072510;28;19908;-64
2021/07/31 03:44:39;;;;;;;;;;;18.90;74.90;;;;;;5072408;28;19920;-66
2021/07/31 03:47:05;;;;;;;;;;;18.90;72.90;;;;;;5072233;28;20412;-64
2021/07/31 03:49:32;;;;;;;;;;;19.00;72.20;;;;;;5071564;28;19912;-67
2021/07/31 03:51:59;;;;;;;;;;;19.00;73.10;;;;;;5072524;28;19961;-66
2021/07/31 03:54:26;;;;;;;;;;;19.00;73.10;;;;;;5072523;28;19908;-63
2021/07/31 03:56:52;;;;;;;;;;;19.10;73.70;;;;;;5072588;28;20371;-64
2021/07/31 03:59:19;;;;;;;;;;;19.00;73.80;;;;;;5072301;28;19955;-64
2021/07/31 04:01:46;;;;;;;;;;;19.00;74.10;;;;;;5072278;28;19999;-64
2021/07/31 04:04:13;;;;;;;;;;;19.00;75.20;;;;;;5071816;28;19909;-66
2021/07/31 04:06:39;;;;;;;;;;;19.30;73.70;;;;;;5072192;28;19916;-63
2021/07/31 04:09:06;;;;;;;;;;;19.20;73.90;;;;;;5072302;28;20364;-65
2021/07/31 04:11:33;;;;;;;;;;;19.30;74.00;;;;;;5071976;28;19908;-66
2021/07/31 04:13:59;;;;;;;;;;;19.40;73.90;;;;;;5072320;28;19916;-67
2021/07/31 04:16:26;;;;;;;;;;;19.50;73.20;;;;;;5072445;28;19915;-66
2021/07/31 04:18:52;;;;;;;;;;;19.40;74.10;;;;;;5071437;28;19915;-65
2021/07/31 04:21:19;;;;;;;;;;;19.50;74.10;;;;;;5072209;28;19909;-67
2021/07/31 04:23:54;;;;;;;;;;;19.60;73.10;;;;;;5072430;28;20367;-64
2021/07/31 04:26:21;;;;;;;;;;;19.40;74.10;;;;;;5072038;28;19917;-65
2021/07/31 04:28:48;;;;;;;;;;;19.40;74.50;;;;;;5072073;28;19931;-64
2021/07/31 04:31:15;;;;;;;;;;;19.50;73.90;;;;;;5071803;28;19912;-64
2021/07/31 04:33:42;;;;;;;;;;;19.50;74.20;;;;;;5071294;28;20311;-64
2021/07/31 04:36:09;;;;;;;;;;;19.60;74.00;;;;;;5071990;28;19939;-65
2021/07/31 04:38:36;;;;;;;;;;;19.50;74.80;;;;;;5072020;28;19915;-66
2021/07/31 04:41:04;;;;;;;;;;;19.40;74.80;;;;;;5071995;28;20260;-65
2021/07/31 04:43:34;;;;;;;;;;;19.40;75.40;;;;;;5103157;28;19932;-63
2021/07/31 04:46:01;;;;;;;;;;;19.40;75.00;;;;;;5075784;28;19917;-63
2021/07/31 04:48:28;;;;;;;;;;;19.50;75.30;;;;;;5074988;28;19915;-65
2021/07/31 04:50:58;;;;;;;;;;;19.50;75.20;;;;;;5075594;28;19912;-65
2021/07/31 04:53:26;;;;;;;;;;;19.60;75.20;;;;;;5075606;28;19916;-65
2021/07/31 04:55:53;;;;;;;;;;;19.50;76.70;;;;;;5075372;28;20318;-66
2021/07/31 04:58:20;;;;;;;;;;;19.30;82.00;;;;;;5075708;28;19909;-67
2021/07/31 05:00:47;;;;;;;;;;;19.30;84.40;;;;;;5074241;28;20000;-66
2021/07/31 05:03:14;;;;;;;;;;;19.10;84.90;;;;;;5075118;28;19909;-66
2021/07/31 05:05:44;;;;;;;;;;;19.10;86.50;;;;;;5075085;28;19916;-65
2021/07/31 05:08:12;;;;;;;;;;;18.90;86.90;;;;;;5075212;28;19908;-64
2021/07/31 05:10:39;;;;;;;;;;;18.90;86.40;;;;;;5074067;28;19908;-65
2021/07/31 05:13:06;;;;;;;;;;;18.80;89.60;;;;;;5074126;28;20031;-64
2021/07/31 05:15:34;;;;;;;;;;;18.80;89.40;;;;;;5074865;28;19915;-64
2021/07/31 05:18:01;;;;;;;;;;;18.90;89.90;;;;;;5074794;28;19995;-64
2021/07/31 05:20:27;;;;;;;;;;;18.80;90.00;;;;;;5074756;28;19909;-65
2021/07/31 05:22:54;;;;;;;;;;;18.90;90.00;;;;;;5075102;28;19917;-66
2021/07/31 05:25:21;;;;;;;;;;;18.80;90.00;;;;;;5075199;28;19957;-64
2021/07/31 05:27:47;;;;;;;;;;;18.80;89.20;;;;;;5074799;28;19909;-64
2021/07/31 05:30:14;;;;;;;;;;;18.80;89.20;;;;;;5075218;28;19912;-67
2021/07/31 05:32:41;;;;;;;;;;;18.80;89.90;;;;;;5075060;28;19908;-66
2021/07/31 05:35:08;;;;;;;;;;;18.90;89.10;;;;;;5074398;28;19995;-66
2021/07/31 05:37:35;;;;;;;;;;;18.80;90.80;;;;;;5074661;28;19912;-64
2021/07/31 05:40:02;;;;;;;;;;;18.70;90.40;;;;;;5074867;28;19909;-64
2021/07/31 05:42:29;;;;;;;;;;;18.80;85.30;;;;;;5074884;28;20347;-65
2021/07/31 05:44:59;;;;;;;;;;;18.70;87.70;;;;;;5074639;28;20371;-66
2021/07/31 05:47:27;;;;;;;;;;;18.50;91.60;;;;;;5074741;28;20341;-67
2021/07/31 05:49:54;;;;;;;;;;;18.40;91.50;;;;;;5073844;28;20006;-66
2021/07/31 05:52:24;;;;;;;;;;;18.30;91.80;;;;;;5074634;28;20399;-66
2021/07/31 05:54:51;;;;;;;;;;;18.20;92.00;;;;;;5074107;28;20351;-67
2021/07/31 05:57:19;;;;;;;;;;;18.20;92.80;;;;;;5074698;28;19909;-65
2021/07/31 05:59:45;;;;;;;;;;;18.20;93.00;;;;;;5074351;28;19908;-66
2021/07/31 06:02:12;;;;;;;;;;;18.20;93.00;;;;;;5074305;28;20531;-65
2021/07/31 06:04:39;;;;;;;;;;;18.10;93.30;;;;;;5073867;28;20377;-65
2021/07/31 06:07:10;;;;;;;;;;;18.10;93.70;;;;;;5074177;28;20003;-67
2021/07/31 06:09:41;;;;;;;;;;;18.00;94.20;;;;;;5074021;28;19931;-66
2021/07/31 06:12:09;;;;;;;;;;;17.90;94.60;;;;;;5074298;28;20266;-67
2021/07/31 06:14:36;;;;;;;;;;;17.90;95.00;;;;;;5074148;28;20347;-65
2021/07/31 06:17:04;;;;;;;;;;;17.90;95.50;;;;;;5073819;28;19916;-69
2021/07/31 06:19:31;;;;;;;;;;;17.80;95.90;;;;;;5073234;28;19995;-66
2021/07/31 06:21:58;;;;;;;;;;;17.70;96.20;;;;;;5074107;28;19916;-67
2021/07/31 06:24:25;;;;;;;;;;;17.70;96.70;;;;;;5073969;28;19970;-66
2021/07/31 06:26:51;;;;;;;;;;;17.70;96.90;;;;;;5073714;28;20375;-65
2021/07/31 06:29:18;;;;;;;;;;;17.60;97.00;;;;;;5074088;28;20388;-65
2021/07/31 06:31:45;;;;;;;;;;;17.50;97.40;;;;;;5073406;28;19908;-67
2021/07/31 06:34:12;;;;;;;;;;;17.50;97.50;;;;;;5073451;28;19908;-64
2021/07/31 06:36:39;;;;;;;;;;;17.50;97.60;;;;;;5073663;28;19909;-67
2021/07/31 06:39:15;;;;;;;;;;;17.50;97.60;;;;;;5073591;28;19908;-67
2021/07/31 06:41:42;;;;;;;;;;;17.50;97.50;;;;;;5073212;28;19962;-66
2021/07/31 06:44:08;;;;;;;;;;;17.50;97.70;;;;;;5073267;28;19960;-68
2021/07/31 06:46:35;;;;;;;;;;;17.50;97.80;;;;;;5073252;28;19920;-65
2021/07/31 06:49:02;;;;;;;;;;;17.40;97.90;;;;;;5072972;28;19908;-68
2021/07/31 06:51:28;;;;;;;;;;;17.40;98.00;;;;;;5073511;28;19916;-65
2021/07/31 06:53:58;;;;;;;;;;;17.40;98.00;;;;;;5073276;28;19916;-72
2021/07/31 06:56:25;;;;;;;;;;;17.50;98.00;;;;;;5073448;28;19971;-66
2021/07/31 06:58:52;;;;;;;;;;;17.40;98.40;;;;;;5073372;28;19908;-66
2021/07/31 07:01:18;;;;;;;;;;;17.40;98.10;;;;;;5073087;28;20654;-64
2021/07/31 07:03:47;;;;;;;;;;;17.40;98.60;;;;;;5073146;28;19912;-65
2021/07/31 07:06:14;;;;;;;;;;;17.40;99.20;;;;;;5072869;28;19924;-65
2021/07/31 07:08:41;;;;;;;;;;;17.30;98.40;;;;;;5073250;28;19915;-64
2021/07/31 07:11:11;;;;;;;;;;;17.30;99.10;;;;;;5072961;28;20267;-65
2021/07/31 07:13:38;;;;;;;;;;;17.30;98.60;;;;;;5072950;28;19908;-65
2021/07/31 07:16:05;;;;;;;;;;;17.20;98.60;;;;;;5072843;28;20290;-66
2021/07/31 07:18:32;;;;;;;;;;;17.20;99.00;;;;;;5072926;28;19909;-66
2021/07/31 07:21:03;;;;;;;;;;;17.10;98.50;;;;;;5073049;28;19994;-64
2021/07/31 07:23:30;;;;;;;;;;;17.10;98.80;;;;;;5072809;28;19912;-65
2021/07/31 07:25:56;;;;;;;;;;;17.00;98.90;;;;;;5072817;28;19920;-65
2021/07/31 07:28:23;;;;;;;;;;;17.00;99.10;;;;;;5072984;28;20015;-68
2021/07/31 07:30:50;;;;;;;;;;;16.90;99.10;;;;;;5072517;28;19908;-65
2021/07/31 07:33:16;;;;;;;;;;;16.90;99.20;;;;;;5072879;28;19908;-67
2021/07/31 07:35:43;;;;;;;;;;;16.80;99.50;;;;;;5105096;28;19908;-65
2021/07/31 07:38:10;;;;;;;;;;;16.80;99.20;;;;;;5072709;28;19916;-65
2021/07/31 07:40:36;;;;;;;;;;;16.80;99.20;;;;;;5072907;28;19908;-67
2021/07/31 07:43:03;;;;;;;;;;;16.80;99.20;;;;;;5072905;28;19912;-68
2021/07/31 07:45:30;;;;;;;;;;;16.70;99.20;;;;;;5072278;28;20441;-67
2021/07/31 07:47:56;;;;;;;;;;;16.70;99.10;;;;;;5072566;28;19921;-67
2021/07/31 07:50:28;;;;;;;;;;;16.70;99.20;;;;;;5071872;28;20199;-69
2021/07/31 07:52:55;;;;;;;;;;;16.60;99.20;;;;;;5072348;28;19920;-65
2021/07/31 07:55:21;;;;;;;;;;;16.60;99.50;;;;;;5072351;28;20011;-65
2021/07/31 07:57:48;;;;;;;;;;;16.60;99.30;;;;;;5072410;28;19913;-68
2021/07/31 08:00:15;;;;;;;;;;;16.60;99.30;;;;;;5072352;28;19917;-66
2021/07/31 08:02:41;;;;;;;;;;;16.60;99.20;;;;;;5072220;28;20394;-69
2021/07/31 08:05:08;;;;;;;;;;;16.60;99.40;;;;;;5072485;28;20019;-64
2021/07/31 08:07:35;;;;;;;;;;;16.50;99.30;;;;;;5072136;28;20274;-67
2021/07/31 08:10:02;;;;;;;;;;;16.50;99.40;;;;;;5072485;28;20279;-65
2021/07/31 08:12:28;;;;;;;;;;;16.50;99.30;;;;;;5072276;28;20341;-66
2021/07/31 08:14:55;;;;;;;;;;;16.50;99.50;;;;;;5071631;28;19991;-67
2021/07/31 08:17:21;;;;;;;;;;;16.50;99.40;;;;;;5072039;28;19958;-67
2021/07/31 08:19:48;;;;;;;;;;;16.50;99.10;;;;;;5075465;28;20098;-67
2021/07/31 08:22:15;;;;;;;;;;;16.50;99.10;;;;;;5076204;28;20366;-67
2021/07/31 08:24:41;;;;;;;;;;;16.50;98.90;;;;;;5076474;28;19908;-67
2021/07/31 08:27:08;;;;;;;;;;;16.50;98.90;;;;;;5076660;28;19916;-66
2021/07/31 08:29:35;;;;;;;;;;;16.50;98.60;;;;;;5075897;28;19913;-64
2021/07/31 08:32:01;;;;;;;;;;;16.50;98.40;;;;;;5075543;28;20406;-66
2021/07/31 08:34:28;;;;;;;;;;;16.50;98.30;;;;;;5075785;28;19928;-64
2021/07/31 08:37:00;;;;;;;;;;;16.50;98.20;;;;;;5076050;28;19955;-67
2021/07/31 08:39:26;;;;;;;;;;;16.50;98.20;;;;;;5108146;28;19943;-70
2021/07/31 08:41:54;;;;;;;;;;;16.50;98.00;;;;;;5075695;28;19995;-65
2021/07/31 08:44:20;;;;;;;;;;;16.50;97.70;;;;;;5075790;28;19957;-66
2021/07/31 08:46:49;;;;;;;;;;;16.50;97.70;;;;;;5075722;28;20320;-65
2021/07/31 08:49:18;;;;;;;;;;;16.60;97.50;;;;;;5075811;28;20279;-67
2021/07/31 08:51:45;;;;;;;;;;;16.60;97.30;;;;;;5075819;28;19952;-66
2021/07/31 08:54:11;;;;;;;;;;;16.60;97.00;;;;;;5075774;28;20356;-64
2021/07/31 08:56:42;;;;;;;;;;;16.60;96.90;;;;;;5075745;28;19913;-67
2021/07/31 08:59:09;;;;;;;;;;;16.60;96.70;;;;;;5075585;28;20286;-65
2021/07/31 09:01:36;;;;;;;;;;;16.60;96.70;;;;;;5075197;28;19999;-66
2021/07/31 09:04:13;;;;;;;;;;;16.60;96.50;;;;;;5075504;28;19912;-66
2021/07/31 09:06:40;;;;;;;;;;;16.60;96.40;;;;;;5075502;28;20009;-65
2021/07/31 09:09:07;;;;;;;;;;;16.60;96.40;;;;;;5075547;28;20278;-67
2021/07/31 09:11:33;;;;;;;;;;;16.50;96.20;;;;;;5075268;28;19908;-68
2021/07/31 09:14:09;;;;;;;;;;;16.50;96.20;;;;;;5075212;28;19913;-66
2021/07/31 09:16:37;;;;;;;;;;;16.50;95.70;;;;;;5075121;28;19944;-69
2021/07/31 09:19:09;;;;;;;;;;;16.60;95.80;;;;;;5075022;28;20015;-67
2021/07/31 09:21:36;;;;;;;;;;;16.60;95.90;;;;;;5107315;28;19920;-66
2021/07/31 09:24:03;;;;;;;;;;;16.50;95.90;;;;;;5075143;28;19920;-66
2021/07/31 09:26:36;;;;;;;;;;;16.50;95.70;;;;;;5075020;28;19963;-65
2021/07/31 09:29:05;;;;;;;;;;;16.50;95.20;;;;;;5074656;28;19919;-65
2021/07/31 09:31:32;;;;;;;;;;;16.50;95.00;;;;;;5073652;28;19999;-65
2021/07/31 09:34:00;;;;;;;;;;;16.50;94.90;;;;;;5075083;28;19908;-66
2021/07/31 09:36:36;;;;;;;;;;;16.50;94.70;;;;;;5074789;28;19908;-65
2021/07/31 09:39:04;;;;;;;;;;;16.50;94.60;;;;;;5074890;28;19919;-66
2021/07/31 09:41:36;;;;;;;;;;;16.50;94.40;;;;;;5074691;28;20379;-65
2021/07/31 09:44:04;;;;;;;;;;;16.50;94.40;;;;;;5074549;28;19924;-69
2021/07/31 09:46:35;;;;;;;;;;;16.50;94.20;;;;;;5074519;28;19927;-67
2021/07/31 09:49:06;;;;;;;;;;;16.50;94.20;;;;;;5074768;28;19959;-68
2021/07/31 09:51:59;;;;;;;;;;;16.50;94.50;;;;;;5074554;28;20003;-68
2021/07/31 09:54:26;;;;;;;;;;;16.50;93.80;;;;;;5073594;28;19913;-64
2021/07/31 09:56:54;;;;;;;;;;;16.50;93.60;;;;;;5074533;28;19914;-65
2021/07/31 09:59:21;;;;;;;;;;;16.50;93.40;;;;;;5074401;28;20320;-65
2021/07/31 10:01:49;;;;;;;;;;;16.50;93.30;;;;;;5074012;28;19961;-65
2021/07/31 10:04:17;;;;;;;;;;;16.50;93.20;;;;;;5074301;28;19909;-66
2021/07/31 10:06:44;;;;;;;;;;;16.50;92.90;;;;;;5074133;28;19917;-65
2021/07/31 10:09:11;;;;;;;;;;;16.50;93.10;;;;;;5074210;28;20000;-64
2021/07/31 10:11:39;;;;;;;;;;;16.50;93.10;;;;;;5074076;28;19917;-65
2021/07/31 10:14:08;;;;;;;;;;;16.40;93.30;;;;;;5073780;28;19928;-66
2021/07/31 10:16:36;;;;;;;;;;;16.40;93.20;;;;;;5073935;28;19935;-66
2021/07/31 10:19:07;;;;;;;;;;;16.30;93.40;;;;;;5074307;28;19919;-67
2021/07/31 10:21:35;;;;;;;;;;;16.40;92.90;;;;;;5073920;28;19951;-65
2021/07/31 10:24:06;;;;;;;;;;;16.50;92.60;;;;;;5074427;28;19915;-70
2021/07/31 10:26:34;;;;;;;;;;;16.50;92.40;;;;;;5073942;28;20382;-67
2021/07/31 10:29:19;;;;;;;;;;;16.60;91.90;;;;;;5073413;28;19909;-67
2021/07/31 10:31:45;;;;;;;;;;;16.80;91.60;;;;;;5073621;28;19908;-68
2021/07/31 10:34:32;;;;;;;;;;;16.80;91.50;;;;;;5073898;28;19915;-67
2021/07/31 10:36:58;;;;;;;;;;;16.80;91.20;;;;;;5073897;28;19915;-67
2021/07/31 10:39:28;;;;;;;;;;;16.90;91.50;;;;;;5074081;28;20030;-68
2021/07/31 10:41:56;;;;;;;;;;;16.90;90.90;;;;;;5070765;28;20407;-67
2021/07/31 10:44:23;;;;;;;;;;;17.10;90.80;;;;;;5071200;28;19924;-66
2021/07/31 10:46:51;;;;;;;;;;;17.00;91.00;;;;;;5071435;28;19927;-66
2021/07/31 10:49:35;;;;;;;;;;;17.00;90.80;;;;;;5071387;28;19970;-66
2021/07/31 10:52:01;;;;;;;;;;;17.00;90.90;;;;;;5071325;28;19916;-68
2021/07/31 10:54:46;;;;;;;;;;;17.00;90.80;;;;;;5071088;28;19912;-67
2021/07/31 10:57:13;;;;;;;;;;;17.00;90.70;;;;;;5071251;28;19954;-67
2021/07/31 10:59:39;;;;;;;;;;;17.00;90.70;;;;;;5070611;28;19908;-67
2021/07/31 11:02:24;;;;;;;;;;;17.00;90.80;;;;;;5071232;28;19915;-70
2021/07/31 11:05:00;;;;;;;;;;;17.00;90.70;;;;;;5071054;28;19987;-68
2021/07/31 11:07:27;;;;;;;;;;;16.90;90.80;;;;;;5070699;28;19928;-67
2021/07/31 11:10:12;;;;;;;;;;;16.90;90.80;;;;;;5070544;28;19915;-67
2021/07/31 11:12:44;;;;;;;;;;;17.00;90.80;;;;;;5070222;28;20342;-65
2021/07/31 11:15:10;;;;;;;;;;;17.00;91.00;;;;;;5070825;28;19909;-68
2021/07/31 11:17:37;;;;;;;;;;;16.90;90.70;;;;;;5070784;28;19962;-66
2021/07/31 11:20:25;;;;;;;;;;;17.00;90.60;;;;;;5070726;28;19958;-68
2021/07/31 11:22:55;;;;;;;;;;;17.00;90.80;;;;;;5070851;28;20421;-67
2021/07/31 11:25:22;;;;;;;;;;;16.80;91.00;;;;;;5070137;28;20003;-66
2021/07/31 11:27:55;;;;;;;;;;;16.80;91.00;;;;;;5069758;28;20248;-64
2021/07/31 11:30:22;;;;;;;;;;;16.80;90.90;;;;;;5070527;28;19999;-65
2021/07/31 11:32:48;;;;;;;;;;;16.90;90.80;;;;;;5070544;28;20000;-66
2021/07/31 11:35:27;;;;;;;;;;;17.00;90.70;;;;;;5070590;28;19951;-66
2021/07/31 11:37:53;;;;;;;;;;;16.90;90.90;;;;;;5102433;28;19912;-65
2021/07/31 11:40:20;;;;;;;;;;;16.90;90.80;;;;;;5070498;28;20382;-65
2021/07/31 11:42:47;;;;;;;;;;;16.80;91.00;;;;;;5069925;28;19916;-65
2021/07/31 11:45:13;;;;;;;;;;;16.80;91.20;;;;;;5070337;28;19920;-67
2021/07/31 11:47:41;;;;;;;;;;;16.80;91.10;;;;;;5070408;28;20011;-65
2021/07/31 11:50:10;;;;;;;;;;;16.70;91.30;;;;;;5070460;28;19912;-65
2021/07/31 11:52:37;;;;;;;;;;;16.70;91.10;;;;;;5069544;28;20278;-68
2021/07/31 11:55:08;;;;;;;;;;;16.80;91.20;;;;;;5070299;28;19913;-65
2021/07/31 11:57:35;;;;;;;;;;;16.70;91.10;;;;;;5102242;28;20476;-65
2021/07/31 12:00:01;;;;;;;;;;;16.80;91.20;;;;;;5070207;28;19916;-67
2021/07/31 12:02:39;;;;;;;;;;;16.70;91.30;;;;;;5102737;28;19915;-66
2021/07/31 12:05:06;;;;;;;;;;;16.60;91.40;;;;;;5069864;28;19912;-65
2021/07/31 12:07:32;;;;;;;;;;;16.60;91.40;;;;;;5069887;28;19919;-68
2021/07/31 12:10:00;;;;;;;;;;;16.60;91.40;;;;;;5070143;28;20260;-66
2021/07/31 12:12:28;;;;;;;;;;;16.60;91.50;;;;;;5069698;28;19908;-65
2021/07/31 12:15:07;;;;;;;;;;;16.60;91.50;;;;;;5069872;28;19916;-67
2021/07/31 12:17:33;;;;;;;;;;;16.50;91.60;;;;;;5069477;28;19943;-66
2021/07/31 12:20:01;;;;;;;;;;;16.50;91.60;;;;;;5070133;28;19912;-66
2021/07/31 12:22:28;;;;;;;;;;;16.50;91.90;;;;;;5070261;28;19912;-64
2021/07/31 12:25:07;;;;;;;;;;;16.50;91.80;;;;;;5069886;28;19919;-64
2021/07/31 12:27:49;;;;;;;;;;;16.50;91.90;;;;;;5069441;28;19912;-65
2021/07/31 12:30:29;;;;;;;;;;;16.50;91.80;;;;;;5069759;28;19986;-64
2021/07/31 12:33:00;;;;;;;;;;;16.60;91.80;;;;;;5069879;28;19962;-65
2021/07/31 12:35:33;;;;;;;;;;;16.60;91.90;;;;;;5069983;28;19912;-65
2021/07/31 12:38:00;;;;;;;;;;;16.50;91.90;;;;;;5069990;28;19920;-65
2021/07/31 12:40:27;;;;;;;;;;;16.50;91.90;;;;;;5069970;28;19913;-66
2021/07/31 12:42:54;;;;;;;;;;;16.50;91.80;;;;;;5068183;28;19920;-65
2021/07/31 12:45:21;;;;;;;;;;;16.50;92.20;;;;;;5069208;28;20417;-66
2021/07/31 12:47:47;;;;;;;;;;;16.50;92.00;;;;;;5069633;28;19913;-65
2021/07/31 12:50:14;;;;;;;;;;;16.40;92.10;;;;;;5069839;28;19912;-66
2021/07/31 12:52:41;;;;;;;;;;;16.40;92.20;;;;;;5069792;28;19908;-66
2021/07/31 12:55:08;;;;;;;;;;;16.40;92.20;;;;;;5069776;28;19912;-66
2021/07/31 12:57:37;;;;;;;;;;;16.40;92.30;;;;;;5068661;28;19912;-64
2021/07/31 13:00:04;;;;;;;;;;;16.40;92.40;;;;;;5069621;28;20011;-64
2021/07/31 13:02:31;;;;;;;;;;;16.40;92.50;;;;;;5069846;28;19923;-65
2021/07/31 13:04:58;;;;;;;;;;;16.40;92.40;;;;;;5071821;28;19926;-65
2021/07/31 13:07:24;;;;;;;;;;;16.40;92.30;;;;;;5073270;28;19948;-71
2021/07/31 13:09:51;;;;;;;;;;;16.40;92.30;;;;;;5072920;28;20297;-66
2021/07/31 13:12:18;;;;;;;;;;;16.40;92.60;;;;;;5072894;28;19908;-66
2021/07/31 13:14:44;;;;;;;;;;;16.40;92.40;;;;;;5073136;28;19909;-65
2021/07/31 13:17:11;;;;;;;;;;;16.30;92.40;;;;;;5073217;28;19908;-66
2021/07/31 13:19:37;;;;;;;;;;;16.30;92.50;;;;;;5072845;28;19936;-66
2021/07/31 13:22:04;;;;;;;;;;;16.30;92.40;;;;;;5072978;28;20167;-67
2021/07/31 13:24:31;;;;;;;;;;;16.40;92.70;;;;;;5072800;28;20358;-68
2021/07/31 13:26:57;;;;;;;;;;;16.40;92.50;;;;;;5072622;28;19916;-67
2021/07/31 13:29:25;;;;;;;;;;;16.40;92.30;;;;;;5073079;28;19908;-66
2021/07/31 13:31:53;;;;;;;;;;;16.40;92.50;;;;;;5072822;28;19912;-67
2021/07/31 13:34:20;;;;;;;;;;;16.40;92.30;;;;;;5072912;28;19909;-67
2021/07/31 13:36:48;;;;;;;;;;;16.40;92.40;;;;;;5072422;28;20313;-66
2021/07/31 13:39:19;;;;;;;;;;;16.40;92.70;;;;;;5072752;28;20232;-65
2021/07/31 13:41:47;;;;;;;;;;;16.40;92.50;;;;;;5071929;28;19913;-67
2021/07/31 13:44:15;;;;;;;;;;;16.40;92.70;;;;;;5072391;28;20389;-66
2021/07/31 13:46:45;;;;;;;;;;;16.30;92.60;;;;;;5072471;28;19917;-66
2021/07/31 13:49:12;;;;;;;;;;;16.30;92.50;;;;;;5072471;28;19935;-65
2021/07/31 13:51:38;;;;;;;;;;;16.40;92.60;;;;;;5072593;28;20274;-66
2021/07/31 13:54:05;;;;;;;;;;;16.30;92.50;;;;;;5072617;28;19920;-65
2021/07/31 13:56:35;;;;;;;;;;;16.30;92.50;;;;;;5071890;28;20298;-65
2021/07/31 13:59:03;;;;;;;;;;;16.30;92.70;;;;;;5072143;28;20066;-67
2021/07/31 14:01:31;;;;;;;;;;;16.30;92.60;;;;;;5071999;28;20389;-64
2021/07/31 14:03:58;;;;;;;;;;;16.30;92.50;;;;;;5071892;28;19908;-68
2021/07/31 14:06:25;;;;;;;;;;;16.30;92.60;;;;;;5072168;28;20342;-67
2021/07/31 14:08:51;;;;;;;;;;;16.30;92.60;;;;;;5072448;28;19909;-68
2021/07/31 14:11:18;;;;;;;;;;;16.30;92.60;;;;;;5072066;28;19908;-65
2021/07/31 14:13:45;;;;;;;;;;;16.30;92.70;;;;;;5071772;28;20000;-65
2021/07/31 14:16:11;;;;;;;;;;;16.30;92.60;;;;;;5071164;28;19920;-66
2021/07/31 14:18:38;;;;;;;;;;;16.30;92.60;;;;;;5072148;28;20362;-65
2021/07/31 14:21:09;;;;;;;;;;;16.30;92.60;;;;;;5071866;28;20040;-65